createdAt,value
2017-09-14T00:00:55.494Z,72.72
2017-09-14T00:02:05.945Z,72.43
2017-09-14T00:03:16.415Z,73.1
2017-09-14T00:04:26.532Z,73.1
2017-09-14T00:05:36.992Z,73
2017-09-14T00:06:47.664Z,73.1
2017-09-14T00:07:58.102Z,73.1
2017-09-14T00:09:08.558Z,72.97
2017-09-14T00:10:18.890Z,73.1
2017-09-14T00:11:28.999Z,72.97
2017-09-14T00:12:40.303Z,72.91
2017-09-14T00:13:51.103Z,73.29
2017-09-14T00:15:01.579Z,73.19
2017-09-14T00:16:11.800Z,73.1
2017-09-14T00:17:22.239Z,73.19
2017-09-14T00:18:32.957Z,73
2017-09-14T00:19:43.387Z,73.29
2017-09-14T00:20:53.868Z,72.81
2017-09-14T00:22:04.304Z,73
2017-09-14T00:23:14.766Z,73
2017-09-14T00:24:25.428Z,72.91
2017-09-14T00:25:35.874Z,73.1
2017-09-14T00:26:46.007Z,73
2017-09-14T00:27:56.126Z,73.1
2017-09-14T00:29:06.265Z,73
2017-09-14T00:30:17.128Z,73
2017-09-14T00:31:27.559Z,72.81
2017-09-14T00:32:37.857Z,72.91
2017-09-14T00:33:48.286Z,73.1
2017-09-14T00:34:58.742Z,72.81
2017-09-14T00:36:08.675Z,72.81
2017-09-14T00:37:19.087Z,73.39
2017-09-14T00:38:29.571Z,72.81
2017-09-14T00:39:40.075Z,73.19
2017-09-14T00:40:50.535Z,73.39
2017-09-14T00:42:01.213Z,73.1
2017-09-14T00:43:11.655Z,73
2017-09-14T00:44:22.121Z,73.29
2017-09-14T00:45:32.258Z,73.29
2017-09-14T00:46:42.673Z,73.19
2017-09-14T00:47:53.350Z,73.19
2017-09-14T00:49:03.850Z,73.48
2017-09-14T00:50:13.856Z,73.29
2017-09-14T00:51:24.283Z,73.29
2017-09-14T00:52:34.934Z,73.29
2017-09-14T00:53:45.239Z,73.48
2017-09-14T00:54:55.353Z,73.58
2017-09-14T00:56:05.796Z,73.19
2017-09-14T00:57:16.222Z,73.39
2017-09-14T00:58:26.681Z,73.29
2017-09-14T00:59:37.363Z,73.48
2017-09-14T01:00:47.798Z,73.96
2017-09-14T01:01:58.283Z,74.05
2017-09-14T01:03:08.711Z,73.67
2017-09-14T01:04:18.236Z,73.96
2017-09-14T01:05:28.907Z,74.21
2017-09-14T01:06:39.351Z,74.11
2017-09-14T01:07:49.776Z,73.92
2017-09-14T01:09:00.240Z,74.4
2017-09-14T01:10:10.685Z,74.3
2017-09-14T01:11:21.356Z,74.4
2017-09-14T01:12:31.896Z,74.4
2017-09-14T01:13:42.021Z,74.59
2017-09-14T01:14:52.475Z,74.78
2017-09-14T01:16:02.917Z,75.07
2017-09-14T01:17:13.666Z,74.88
2017-09-14T01:18:23.784Z,74.49
2017-09-14T01:19:34.563Z,74.49
2017-09-14T01:20:45.008Z,75.16
2017-09-14T01:21:55.445Z,74.78
2017-09-14T01:23:06.218Z,75.07
2017-09-14T01:24:16.630Z,75.16
2017-09-14T01:25:27.038Z,75.54
2017-09-14T01:26:37.488Z,75.49
2017-09-14T01:27:47.623Z,75.54
2017-09-14T01:28:58.350Z,75.64
2017-09-14T01:30:08.778Z,75.54
2017-09-14T01:31:19.220Z,75.74
2017-09-14T01:32:29.677Z,75.87
2017-09-14T01:33:40.302Z,76.03
2017-09-14T01:34:50.682Z,76.06
2017-09-14T01:36:01.211Z,76.16
2017-09-14T01:37:11.667Z,76.35
2017-09-14T01:38:22.103Z,76.16
2017-09-14T01:39:32.232Z,75.87
2017-09-14T01:40:43.040Z,76.16
2017-09-14T01:41:53.463Z,76.45
2017-09-14T01:43:03.629Z,76.16
2017-09-14T01:44:14.093Z,76.06
2017-09-14T01:45:24.536Z,76.45
2017-09-14T01:46:35.208Z,76.25
2017-09-14T01:47:45.665Z,76.35
2017-09-14T01:48:56.401Z,75.87
2017-09-14T01:50:06.507Z,76.06
2017-09-14T01:51:16.627Z,76.45
2017-09-14T01:52:27.567Z,76.16
2017-09-14T01:53:38.022Z,76.16
2017-09-14T01:54:48.455Z,76.54
2017-09-14T01:55:58.943Z,76.54
2017-09-14T01:57:09.150Z,76.54
2017-09-14T01:58:19.825Z,76.82
2017-09-14T01:59:29.938Z,76.73
2017-09-14T02:00:40.359Z,76.82
2017-09-14T02:01:50.358Z,77.11
2017-09-14T02:03:00.805Z,76.82
2017-09-14T02:04:11.703Z,76.82
2017-09-14T02:05:22.175Z,77.01
2017-09-14T02:06:32.314Z,76.73
2017-09-14T02:07:42.732Z,77.11
2017-09-14T02:08:52.579Z,76.82
2017-09-14T02:10:02.934Z,76.92
2017-09-14T02:11:13.364Z,76.82
2017-09-14T02:12:23.807Z,76.45
2017-09-14T02:13:34.253Z,76.96
2017-09-14T02:14:44.719Z,76.77
2017-09-14T02:15:55.399Z,77.11
2017-09-14T02:17:05.873Z,77.11
2017-09-14T02:18:16.515Z,77.01
2017-09-14T02:19:26.944Z,77.15
2017-09-14T02:20:37.405Z,77.25
2017-09-14T02:21:48.101Z,77.25
2017-09-14T02:22:58.213Z,77.63
2017-09-14T02:24:08.644Z,77.53
2017-09-14T02:25:19.068Z,77.53
2017-09-14T02:26:29.603Z,77.63
2017-09-14T02:27:40.372Z,77.5
2017-09-14T02:28:50.855Z,77.34
2017-09-14T02:30:01.290Z,77.82
2017-09-14T02:31:11.730Z,77.53
2017-09-14T02:32:22.193Z,78.45
2017-09-14T02:33:32.870Z,78.3
2017-09-14T02:34:43.346Z,78.11
2017-09-14T02:35:53.791Z,78.3
2017-09-14T02:37:04.261Z,78.78
2017-09-14T02:38:14.721Z,78.58
2017-09-14T02:39:25.389Z,79.06
2017-09-14T02:40:35.798Z,78.87
2017-09-14T02:41:46.384Z,78.78
2017-09-14T02:42:56.537Z,79.35
2017-09-14T02:44:06.994Z,79.35
2017-09-14T02:45:17.733Z,79.35
2017-09-14T02:46:27.722Z,79.54
2017-09-14T02:47:38.157Z,79.25
2017-09-14T02:48:48.626Z,80.02
2017-09-14T02:49:58.602Z,80.5
2017-09-14T02:51:09.302Z,80.59
2017-09-14T02:52:19.825Z,81.16
2017-09-14T02:53:29.961Z,82.98
2017-09-14T02:54:40.372Z,82.79
2017-09-14T02:55:50.506Z,83.08
2017-09-14T02:57:01.222Z,83.17
2017-09-14T02:58:11.421Z,83.75
2017-09-14T02:59:21.860Z,83.75
2017-09-14T03:00:32.319Z,84.42
2017-09-14T03:01:42.744Z,84.47
2017-09-14T03:02:53.440Z,84.09
2017-09-14T03:04:03.879Z,84.47
2017-09-14T03:05:14.023Z,84.95
2017-09-14T03:06:24.264Z,85.05
2017-09-14T03:07:34.689Z,84.66
2017-09-14T03:08:45.360Z,84.66
2017-09-14T03:09:55.784Z,84.95
2017-09-14T03:11:06.232Z,84.76
2017-09-14T03:12:16.670Z,84.56
2017-09-14T03:13:27.163Z,84.47
2017-09-14T03:14:37.822Z,84.56
2017-09-14T03:15:48.259Z,84.85
2017-09-14T03:16:58.652Z,84.56
2017-09-14T03:18:09.103Z,84.56
2017-09-14T03:19:19.325Z,84.19
2017-09-14T03:20:29.940Z,84.19
2017-09-14T03:21:40.050Z,84.09
2017-09-14T03:22:50.480Z,84.47
2017-09-14T03:24:01.179Z,84.47
2017-09-14T03:25:11.589Z,84.56
2017-09-14T03:26:22.030Z,84.56
2017-09-14T03:27:32.488Z,84.38
2017-09-14T03:28:42.966Z,84.09
2017-09-14T03:29:53.609Z,84.09
2017-09-14T03:31:03.583Z,84.47
2017-09-14T03:32:14.119Z,84.19
2017-09-14T03:33:24.565Z,84.19
2017-09-14T03:34:35.109Z,84.14
2017-09-14T03:35:45.556Z,84.52
2017-09-14T03:36:56.002Z,84.05
2017-09-14T03:38:06.139Z,84.14
2017-09-14T03:39:16.557Z,84.91
2017-09-14T03:40:26.969Z,84.23
2017-09-14T03:41:37.456Z,84.43
2017-09-14T03:42:47.609Z,84.91
2017-09-14T03:43:58.141Z,85
2017-09-14T03:45:08.287Z,84.62
2017-09-14T03:46:18.332Z,84.81
2017-09-14T03:47:28.772Z,84.91
2017-09-14T03:48:38.883Z,84.62
2017-09-14T03:49:49.332Z,84.52
2017-09-14T03:50:59.771Z,84.72
2017-09-14T03:52:10.199Z,84.52
2017-09-14T03:53:20.703Z,84.62
2017-09-14T03:54:31.121Z,84.91
2017-09-14T03:55:41.234Z,84.91
2017-09-14T03:56:51.765Z,84.14
2017-09-14T03:58:02.187Z,84.43
2017-09-14T03:59:12.690Z,84.43
2017-09-14T04:00:23.109Z,84.43
2017-09-14T04:01:33.268Z,84.33
2017-09-14T04:02:43.956Z,84.43
2017-09-14T04:03:54.379Z,85.1
2017-09-14T04:05:04.821Z,84.72
2017-09-14T04:06:15.247Z,84.14
2017-09-14T04:07:25.695Z,84.43
2017-09-14T04:08:36.111Z,84.47
2017-09-14T04:09:45.936Z,84.66
2017-09-14T04:10:56.614Z,85.05
2017-09-14T04:12:07.095Z,84.85
2017-09-14T04:13:17.531Z,84.95
2017-09-14T04:14:28.042Z,84.38
2017-09-14T04:15:38.471Z,84.76
2017-09-14T04:16:48.958Z,84.56
2017-09-14T04:17:59.394Z,84.38
2017-09-14T04:19:10.043Z,84.91
2017-09-14T04:20:20.499Z,84.91
2017-09-14T04:21:30.931Z,85
2017-09-14T04:22:41.371Z,84.43
2017-09-14T04:23:51.800Z,84.52
2017-09-14T04:25:02.880Z,84.66
2017-09-14T04:26:13.309Z,84.52
2017-09-14T04:27:23.785Z,85
2017-09-14T04:28:34.288Z,84.43
2017-09-14T04:29:44.721Z,84.81
2017-09-14T04:30:55.176Z,84.43
2017-09-14T04:32:06.019Z,84.62
2017-09-14T04:33:16.531Z,84.72
2017-09-14T04:34:26.962Z,84.62
2017-09-14T04:35:37.409Z,84.91
2017-09-14T04:36:47.677Z,84.62
2017-09-14T04:37:57.851Z,84.72
2017-09-14T04:39:08.319Z,84.52
2017-09-14T04:40:18.801Z,85
2017-09-14T04:41:29.243Z,84.56
2017-09-14T04:42:39.740Z,84.62
2017-09-14T04:43:50.185Z,84.43
2017-09-14T04:45:00.232Z,84.52
2017-09-14T04:46:10.692Z,84.43
2017-09-14T04:47:20.355Z,84.23
2017-09-14T04:48:30.847Z,84.52
2017-09-14T04:49:41.292Z,85
2017-09-14T04:50:51.715Z,84.72
2017-09-14T04:52:01.404Z,84.95
2017-09-14T04:53:11.857Z,84.85
2017-09-14T04:54:22.329Z,84.95
2017-09-14T04:55:32.769Z,84.76
2017-09-14T04:56:43.299Z,84.76
2017-09-14T04:57:53.740Z,84.47
2017-09-14T04:59:04.214Z,84.95
2017-09-14T05:00:14.647Z,85.14
2017-09-14T05:01:25.097Z,84.95
2017-09-14T05:02:35.339Z,84.95
2017-09-14T05:03:45.772Z,84.95
2017-09-14T05:04:56.215Z,85.14
2017-09-14T05:06:06.659Z,85.58
2017-09-14T05:07:17.129Z,85.29
2017-09-14T05:08:27.576Z,85.29
2017-09-14T05:09:38.235Z,85.29
2017-09-14T05:10:48.215Z,85.58
2017-09-14T05:11:58.643Z,85.29
2017-09-14T05:13:08.854Z,85.77
2017-09-14T05:14:19.321Z,85.67
2017-09-14T05:15:29.836Z,85.86
2017-09-14T05:16:39.952Z,85.38
2017-09-14T05:17:50.381Z,85.1
2017-09-14T05:19:01.041Z,85
2017-09-14T05:20:11.488Z,85.1
2017-09-14T05:21:22.014Z,85.14
2017-09-14T05:22:32.454Z,85.1
2017-09-14T05:23:43.134Z,85.1
2017-09-14T05:24:53.573Z,85.19
2017-09-14T05:26:03.988Z,85.1
2017-09-14T05:27:14.116Z,84.91
2017-09-14T05:28:24.721Z,85.29
2017-09-14T05:29:35.135Z,85.1
2017-09-14T05:30:45.636Z,84.72
2017-09-14T05:31:56.106Z,84.72
2017-09-14T05:33:06.547Z,84.91
2017-09-14T05:34:17.000Z,84.05
2017-09-14T05:35:27.571Z,84.05
2017-09-14T05:36:38.011Z,84.23
2017-09-14T05:37:48.515Z,83.86
2017-09-14T05:39:00.152Z,83.57
2017-09-14T05:40:10.601Z,83.7
2017-09-14T05:41:21.016Z,83.51
2017-09-14T05:42:31.437Z,83.33
2017-09-14T05:43:41.608Z,83.42
2017-09-14T05:44:52.132Z,83.04
2017-09-14T05:46:02.747Z,82.94
2017-09-14T05:47:13.184Z,82.65
2017-09-14T05:48:23.676Z,82.65
2017-09-14T05:49:34.137Z,82.75
2017-09-14T05:50:44.253Z,82.18
2017-09-14T05:51:54.366Z,82.18
2017-09-14T05:53:04.967Z,81.6
2017-09-14T05:54:15.426Z,81.79
2017-09-14T05:55:25.904Z,81.79
2017-09-14T05:56:36.377Z,81.99
2017-09-14T05:57:46.960Z,81.51
2017-09-14T05:58:57.403Z,81.51
2017-09-14T06:00:07.852Z,81.03
2017-09-14T06:01:18.302Z,81.22
2017-09-14T06:02:28.781Z,80.93
2017-09-14T06:03:38.918Z,81.22
2017-09-14T06:04:49.340Z,80.93
2017-09-14T06:05:59.499Z,80.93
2017-09-14T06:07:09.953Z,81.22
2017-09-14T06:08:19.970Z,81.22
2017-09-14T06:09:30.100Z,80.65
2017-09-14T06:10:40.579Z,80.74
2017-09-14T06:11:51.007Z,80.55
2017-09-14T06:13:01.451Z,80.55
2017-09-14T06:14:11.781Z,80.74
2017-09-14T06:15:22.238Z,80.07
2017-09-14T06:16:32.683Z,80.55
2017-09-14T06:17:42.821Z,80.27
2017-09-14T06:18:53.256Z,79.69
2017-09-14T06:20:03.773Z,79.88
2017-09-14T06:21:14.218Z,80.07
2017-09-14T06:22:24.270Z,79.79
2017-09-14T06:23:34.299Z,79.79
2017-09-14T06:24:44.746Z,79.79
2017-09-14T06:25:55.227Z,79.88
2017-09-14T06:27:05.673Z,79.6
2017-09-14T06:28:16.206Z,79.6
2017-09-14T06:29:26.744Z,79.69
2017-09-14T06:30:37.165Z,79.41
2017-09-14T06:31:47.597Z,79.69
2017-09-14T06:32:58.047Z,79.41
2017-09-14T06:34:08.483Z,79.31
2017-09-14T06:35:19.045Z,79.41
2017-09-14T06:36:29.474Z,79.5
2017-09-14T06:37:39.971Z,79.5
2017-09-14T06:38:49.735Z,79.41
2017-09-14T06:39:59.853Z,78.55
2017-09-14T06:41:10.282Z,78.68
2017-09-14T06:42:20.305Z,78.78
2017-09-14T06:43:30.417Z,78.83
2017-09-14T06:44:40.913Z,78.83
2017-09-14T06:45:51.354Z,78.55
2017-09-14T06:47:01.804Z,78.93
2017-09-14T06:48:12.259Z,78.93
2017-09-14T06:49:22.386Z,79.02
2017-09-14T06:50:32.909Z,78.49
2017-09-14T06:51:43.355Z,78.39
2017-09-14T06:52:53.854Z,78.39
2017-09-14T06:54:04.307Z,78.58
2017-09-14T06:55:14.772Z,78.39
2017-09-14T06:56:25.202Z,78.49
2017-09-14T06:57:35.748Z,78.49
2017-09-14T06:58:46.202Z,78.2
2017-09-14T06:59:56.703Z,78.11
2017-09-14T07:01:07.140Z,78.11
2017-09-14T07:02:17.675Z,78.11
2017-09-14T07:03:28.089Z,78.3
2017-09-14T07:04:38.564Z,78.39
2017-09-14T07:05:48.998Z,77.92
2017-09-14T07:06:59.433Z,78.3
2017-09-14T07:08:09.857Z,78.39
2017-09-14T07:09:20.454Z,78.11
2017-09-14T07:10:30.899Z,78.01
2017-09-14T07:11:41.428Z,78.3
2017-09-14T07:12:51.474Z,77.63
2017-09-14T07:14:01.933Z,78.01
2017-09-14T07:15:12.547Z,77.53
2017-09-14T07:16:22.758Z,77.63
2017-09-14T07:17:33.231Z,77.72
2017-09-14T07:18:43.654Z,77.25
2017-09-14T07:19:53.862Z,77.25
2017-09-14T07:21:04.288Z,77.34
2017-09-14T07:22:14.743Z,77.25
2017-09-14T07:23:25.184Z,77.06
2017-09-14T07:24:35.770Z,77.15
2017-09-14T07:25:46.250Z,77.06
2017-09-14T07:26:56.697Z,77.06
2017-09-14T07:28:07.113Z,77.15
2017-09-14T07:29:17.593Z,76.48
2017-09-14T07:30:27.723Z,77.06
2017-09-14T07:31:38.153Z,77.06
2017-09-14T07:32:48.721Z,76.96
2017-09-14T07:33:59.183Z,76.96
2017-09-14T07:35:09.335Z,76.96
2017-09-14T07:36:19.907Z,77.09
2017-09-14T07:37:30.332Z,76.62
2017-09-14T07:38:40.847Z,76.52
2017-09-14T07:39:50.978Z,76.42
2017-09-14T07:41:01.435Z,76.23
2017-09-14T07:42:12.008Z,76.14
2017-09-14T07:43:22.454Z,76.52
2017-09-14T07:44:33.001Z,76.23
2017-09-14T07:45:43.478Z,76.33
2017-09-14T07:46:53.937Z,76.14
2017-09-14T07:48:04.525Z,75.95
2017-09-14T07:49:14.949Z,75.66
2017-09-14T07:50:25.511Z,75.95
2017-09-14T07:51:35.934Z,75.85
2017-09-14T07:52:46.437Z,75.79
2017-09-14T07:53:57.843Z,75.95
2017-09-14T07:55:07.875Z,75.66
2017-09-14T07:56:18.327Z,75.6
2017-09-14T07:57:28.795Z,75.31
2017-09-14T07:58:38.788Z,75.02
2017-09-14T07:59:49.221Z,75.22
2017-09-14T08:00:59.661Z,74.93
2017-09-14T08:02:10.114Z,75.02
2017-09-14T08:03:20.558Z,74.74
2017-09-14T08:04:31.128Z,74.84
2017-09-14T08:05:41.316Z,74.84
2017-09-14T08:06:51.761Z,74.93
2017-09-14T08:08:02.234Z,74.84
2017-09-14T08:09:12.672Z,74.9
2017-09-14T08:10:22.842Z,74.99
2017-09-14T08:11:33.314Z,74.99
2017-09-14T08:12:43.763Z,74.51
2017-09-14T08:13:54.341Z,74.41
2017-09-14T08:15:04.763Z,74.7
2017-09-14T08:16:15.446Z,74.61
2017-09-14T08:17:25.869Z,74.41
2017-09-14T08:18:36.522Z,74.41
2017-09-14T08:19:46.644Z,74.8
2017-09-14T08:20:57.099Z,74.41
2017-09-14T08:22:07.525Z,74.61
2017-09-14T08:23:17.980Z,74.7
2017-09-14T08:24:28.439Z,74.7
2017-09-14T08:25:39.958Z,74.51
2017-09-14T08:26:50.378Z,74.61
2017-09-14T08:28:00.956Z,74.61
2017-09-14T08:29:11.390Z,74.22
2017-09-14T08:30:21.858Z,74.22
2017-09-14T08:31:33.285Z,74.41
2017-09-14T08:32:43.264Z,74.22
2017-09-14T08:33:53.714Z,74.04
2017-09-14T08:35:04.134Z,74.32
2017-09-14T08:36:14.580Z,74.04
2017-09-14T08:37:25.174Z,74.22
2017-09-14T08:38:35.598Z,74.13
2017-09-14T08:39:46.033Z,74.04
2017-09-14T08:40:56.512Z,74.41
2017-09-14T08:42:06.937Z,74.51
2017-09-14T08:43:17.419Z,74.51
2017-09-14T08:44:27.861Z,74.7
2017-09-14T08:45:38.297Z,74.7
2017-09-14T08:46:48.786Z,74.61
2017-09-14T08:47:59.452Z,74.51
2017-09-14T08:49:09.482Z,74.32
2017-09-14T08:50:19.949Z,74.41
2017-09-14T08:51:30.448Z,74.04
2017-09-14T08:52:40.891Z,74.32
2017-09-14T08:53:51.347Z,74.32
2017-09-14T08:55:01.784Z,74.32
2017-09-14T08:56:13.389Z,73.65
2017-09-14T08:57:23.743Z,73.55
2017-09-14T08:58:34.180Z,73.94
2017-09-14T08:59:44.620Z,73.84
2017-09-14T09:00:54.847Z,73.79
2017-09-14T09:02:05.316Z,73.97
2017-09-14T09:03:15.828Z,73.69
2017-09-14T09:04:26.269Z,74.16
2017-09-14T09:05:36.502Z,73.97
2017-09-14T09:06:47.036Z,74.04
2017-09-14T09:07:57.486Z,73.75
2017-09-14T09:09:07.974Z,73.84
2017-09-14T09:10:18.426Z,73.84
2017-09-14T09:11:29.160Z,73.36
2017-09-14T09:12:39.287Z,73.5
2017-09-14T09:13:49.726Z,73.65
2017-09-14T09:15:00.168Z,73.75
2017-09-14T09:16:10.671Z,73.4
2017-09-14T09:17:21.112Z,73.11
2017-09-14T09:18:31.732Z,73.21
2017-09-14T09:19:42.166Z,73.4
2017-09-14T09:20:52.631Z,73.4
2017-09-14T09:22:03.321Z,73.4
2017-09-14T09:23:13.740Z,73.4
2017-09-14T09:24:23.861Z,73.5
2017-09-14T09:25:34.542Z,73.3
2017-09-14T09:26:45.010Z,73.3
2017-09-14T09:27:55.436Z,73.27
2017-09-14T09:29:05.888Z,73.59
2017-09-14T09:30:15.596Z,73.59
2017-09-14T09:31:25.591Z,73.4
2017-09-14T09:32:36.021Z,73.4
2017-09-14T09:33:46.472Z,73.69
2017-09-14T09:34:56.953Z,73.4
2017-09-14T09:36:07.413Z,73.4
2017-09-14T09:37:17.552Z,73.59
2017-09-14T09:38:27.810Z,73.21
2017-09-14T09:39:38.229Z,73.21
2017-09-14T09:40:48.956Z,73.3
2017-09-14T09:41:59.404Z,73.3
2017-09-14T09:43:10.324Z,73.3
2017-09-14T09:44:20.491Z,73.11
2017-09-14T09:45:30.482Z,73.4
2017-09-14T09:46:40.929Z,73.4
2017-09-14T09:47:51.390Z,73.79
2017-09-14T09:49:01.896Z,73.4
2017-09-14T09:50:12.342Z,73.4
2017-09-14T09:51:22.850Z,73.11
2017-09-14T09:52:33.308Z,72.54
2017-09-14T09:53:43.758Z,73.05
2017-09-14T09:54:54.249Z,72.63
2017-09-14T09:56:04.077Z,72.77
2017-09-14T09:57:14.514Z,72.19
2017-09-14T09:58:25.181Z,72.29
2017-09-14T09:59:35.624Z,71.81
2017-09-14T10:00:45.756Z,71.33
2017-09-14T10:01:56.220Z,71.52
2017-09-14T10:03:06.664Z,70.95
2017-09-14T10:04:17.155Z,71.04
2017-09-14T10:05:27.714Z,70.66
2017-09-14T10:06:38.220Z,70.98
2017-09-14T10:07:48.341Z,70.89
2017-09-14T10:08:58.547Z,70.21
2017-09-14T10:10:08.663Z,70.21
2017-09-14T10:11:18.826Z,69.83
2017-09-14T10:12:29.259Z,70.03
2017-09-14T10:13:39.433Z,69.01
2017-09-14T10:14:49.864Z,68.72
2017-09-14T10:16:00.017Z,69.01
2017-09-14T10:17:10.243Z,68.81
2017-09-14T10:18:20.381Z,68.33
2017-09-14T10:19:30.835Z,68.52
2017-09-14T10:20:41.304Z,68.43
2017-09-14T10:21:51.761Z,68.33
2017-09-14T10:23:02.231Z,68.43
2017-09-14T10:24:13.335Z,67.38
2017-09-14T10:25:23.881Z,67.28
2017-09-14T10:26:34.315Z,67.38
2017-09-14T10:27:44.750Z,66.8
2017-09-14T10:28:55.353Z,67.05
2017-09-14T10:30:05.583Z,66.86
2017-09-14T10:31:16.037Z,66.86
2017-09-14T10:32:26.467Z,66.77
2017-09-14T10:33:36.928Z,66.77
2017-09-14T10:34:47.072Z,66.96
2017-09-14T10:35:57.073Z,66.48
2017-09-14T10:37:07.542Z,66.86
2017-09-14T10:38:18.031Z,66.77
2017-09-14T10:39:28.504Z,66.45
2017-09-14T10:40:39.030Z,66.48
2017-09-14T10:41:49.498Z,66.77
2017-09-14T10:42:59.692Z,66.48
2017-09-14T10:44:11.096Z,66.67
2017-09-14T10:45:21.322Z,66.67
2017-09-14T10:46:31.760Z,66.29
2017-09-14T10:47:42.213Z,65.94
2017-09-14T10:48:52.644Z,65.94
2017-09-14T10:50:03.125Z,64.89
2017-09-14T10:51:13.275Z,64.98
2017-09-14T10:52:23.738Z,65.26
2017-09-14T10:53:34.295Z,65.17
2017-09-14T10:54:44.762Z,64.31
2017-09-14T10:55:55.243Z,64.34
2017-09-14T10:57:05.684Z,64.34
2017-09-14T10:58:16.173Z,64.18
2017-09-14T10:59:26.605Z,63.22
2017-09-14T11:00:37.062Z,62.84
2017-09-14T11:01:47.525Z,62.93
2017-09-14T11:02:58.031Z,62.93
2017-09-14T11:04:08.472Z,62.07
2017-09-14T11:05:18.930Z,62.26
2017-09-14T11:06:28.874Z,61.59
2017-09-14T11:07:40.381Z,60.92
2017-09-14T11:08:50.829Z,60.72
2017-09-14T11:10:01.281Z,60.63
2017-09-14T11:11:11.764Z,61.3
2017-09-14T11:12:22.222Z,61.02
2017-09-14T11:13:32.680Z,60.82
2017-09-14T11:14:42.860Z,61.21
2017-09-14T11:15:53.369Z,60.92
2017-09-14T11:17:03.930Z,60.35
2017-09-14T11:18:14.397Z,60.72
2017-09-14T11:19:25.035Z,60.63
2017-09-14T11:20:35.616Z,60.41
2017-09-14T11:21:46.072Z,60.6
2017-09-14T11:22:56.328Z,61.08
2017-09-14T11:24:06.860Z,61.46
2017-09-14T11:25:17.374Z,61.56
2017-09-14T11:26:27.859Z,61.66
2017-09-14T11:27:38.354Z,61.66
2017-09-14T11:28:48.820Z,62.23
2017-09-14T11:29:59.266Z,62.33
2017-09-14T11:31:09.439Z,62.52
2017-09-14T11:32:19.600Z,62.62
2017-09-14T11:33:30.056Z,62.62
2017-09-14T11:34:40.188Z,62.9
2017-09-14T11:35:50.643Z,62.81
2017-09-14T11:37:01.091Z,63.35
2017-09-14T11:38:11.559Z,63.45
2017-09-14T11:39:22.068Z,63.73
2017-09-14T11:40:32.557Z,63.92
2017-09-14T11:41:43.119Z,64.02
2017-09-14T11:42:52.815Z,64.02
2017-09-14T11:44:03.067Z,63.8
2017-09-14T11:45:13.524Z,64.37
2017-09-14T11:46:24.086Z,64.56
2017-09-14T11:47:34.568Z,63.6
2017-09-14T11:48:44.704Z,63.8
2017-09-14T11:49:55.165Z,64.09
2017-09-14T11:51:05.321Z,63.92
2017-09-14T11:52:15.760Z,64.09
2017-09-14T11:53:25.971Z,64.02
2017-09-14T11:54:36.531Z,64.18
2017-09-14T11:55:46.973Z,64.09
2017-09-14T11:56:57.642Z,64.09
2017-09-14T11:58:08.169Z,64.37
2017-09-14T11:59:18.608Z,64.47
2017-09-14T12:00:29.118Z,64.09
2017-09-14T12:01:39.281Z,64.37
2017-09-14T12:02:49.751Z,64.4
2017-09-14T12:04:00.217Z,64.59
2017-09-14T12:05:10.670Z,64.4
2017-09-14T12:06:21.272Z,64.22
2017-09-14T12:08:03.516Z,64.22
2017-09-14T12:09:13.633Z,64.59
2017-09-14T12:10:23.798Z,64.31
2017-09-14T12:11:34.226Z,64.59
2017-09-14T12:12:44.726Z,64.59
2017-09-14T12:13:55.189Z,64.5
2017-09-14T12:15:05.177Z,64.59
2017-09-14T12:16:15.713Z,64.22
2017-09-14T12:17:26.146Z,64.18
2017-09-14T12:18:36.328Z,64.28
2017-09-14T12:19:46.482Z,64.28
2017-09-14T12:20:57.164Z,64.56
2017-09-14T12:22:08.050Z,64.47
2017-09-14T12:23:18.172Z,64.76
2017-09-14T12:24:28.653Z,64.37
2017-09-14T12:25:38.468Z,64.09
2017-09-14T12:26:49.105Z,64.18
2017-09-14T12:27:59.542Z,64.47
2017-09-14T12:29:09.675Z,64.18
2017-09-14T12:30:20.244Z,64.28
2017-09-14T12:31:30.696Z,63.99
2017-09-14T12:32:41.218Z,64.76
2017-09-14T12:33:51.357Z,64.76
2017-09-14T12:35:02.031Z,64.76
2017-09-14T12:36:12.394Z,64.66
2017-09-14T12:37:22.837Z,64.59
2017-09-14T12:38:33.340Z,64.69
2017-09-14T12:39:43.939Z,63.96
2017-09-14T12:40:54.417Z,63.86
2017-09-14T12:42:04.568Z,62.52
2017-09-14T12:43:15.385Z,62.26
2017-09-14T12:44:25.906Z,62.45
2017-09-14T12:45:36.358Z,61.78
2017-09-14T12:46:46.806Z,61.98
2017-09-14T12:47:57.256Z,61.78
2017-09-14T12:49:07.813Z,61.88
2017-09-14T12:50:18.277Z,61.59
2017-09-14T12:51:29.698Z,60.53
2017-09-14T12:52:40.241Z,60.92
2017-09-14T12:53:50.694Z,61.11
2017-09-14T12:55:01.426Z,61.3
2017-09-14T12:56:11.625Z,61.69
2017-09-14T12:57:22.227Z,61.85
2017-09-14T12:58:32.677Z,62.42
2017-09-14T12:59:42.676Z,62.42
2017-09-14T13:00:53.354Z,62.26
2017-09-14T13:02:03.797Z,62.45
2017-09-14T13:03:13.943Z,62.45
2017-09-14T13:04:24.449Z,62.58
2017-09-14T13:05:34.903Z,61.91
2017-09-14T13:06:45.476Z,60.66
2017-09-14T13:07:55.907Z,60.11
2017-09-14T13:09:06.382Z,60.5
2017-09-14T13:10:16.838Z,58.67
2017-09-14T13:11:27.313Z,56.95
2017-09-14T13:12:37.310Z,57.14
2017-09-14T13:13:47.814Z,56.37
2017-09-14T13:14:58.384Z,56.85
2017-09-14T13:16:08.849Z,57.78
2017-09-14T13:17:18.862Z,59
2017-09-14T13:18:29.429Z,60.12
2017-09-14T13:19:39.655Z,61.15
2017-09-14T13:20:51.078Z,62.59
2017-09-14T13:22:02.718Z,65.05
2017-09-14T13:23:13.424Z,66.09
2017-09-14T13:24:23.906Z,66.45
2017-09-14T13:25:34.364Z,68.46
2017-09-14T13:26:44.843Z,68.07
2017-09-14T13:27:55.478Z,68.8
2017-09-14T13:29:06.002Z,69.09
2017-09-14T13:30:16.492Z,70.21
2017-09-14T13:31:26.511Z,70.4
2017-09-14T13:32:36.526Z,70.01
2017-09-14T13:33:46.989Z,71.16
2017-09-14T13:34:57.588Z,71.07
2017-09-14T13:36:07.731Z,71.83
2017-09-14T13:37:18.189Z,71.64
2017-09-14T13:38:28.755Z,70.87
2017-09-14T13:39:39.211Z,70.78
2017-09-14T13:40:49.673Z,71.83
2017-09-14T13:42:00.118Z,72.22
2017-09-14T13:43:10.182Z,72.5
2017-09-14T13:44:20.314Z,71.64
2017-09-14T13:45:30.767Z,71.8
2017-09-14T13:46:41.625Z,72.56
2017-09-14T13:47:52.098Z,72.28
2017-09-14T13:49:02.223Z,72.75
2017-09-14T13:50:12.894Z,73.33
2017-09-14T13:51:23.353Z,73.8
2017-09-14T13:52:33.833Z,73.43
2017-09-14T13:53:44.284Z,73.8
2017-09-14T13:54:54.838Z,73.8
2017-09-14T13:56:05.299Z,73.61
2017-09-14T13:57:15.744Z,73.52
2017-09-14T13:58:27.177Z,73.52
2017-09-14T13:59:37.644Z,73.52
2017-09-14T14:00:47.771Z,73.9
2017-09-14T14:01:57.924Z,73.75
2017-09-14T14:03:08.563Z,73.36
2017-09-14T14:04:18.611Z,72.31
2017-09-14T14:05:29.073Z,72.06
2017-09-14T14:06:39.522Z,72.06
2017-09-14T14:07:50.020Z,71.39
2017-09-14T14:09:00.501Z,71.97
2017-09-14T14:10:10.649Z,71.87
2017-09-14T14:11:20.850Z,71.14
2017-09-14T14:12:31.057Z,71.14
2017-09-14T14:13:41.547Z,70.85
2017-09-14T14:14:51.775Z,70.28
2017-09-14T14:16:02.237Z,70.18
2017-09-14T14:17:12.707Z,69.54
2017-09-14T14:18:23.256Z,69.93
2017-09-14T14:19:33.286Z,69.74
2017-09-14T14:20:43.870Z,69.51
2017-09-14T14:21:54.338Z,69.64
2017-09-14T14:23:04.793Z,69.42
2017-09-14T14:24:15.182Z,69.26
2017-09-14T14:25:25.429Z,68.97
2017-09-14T14:26:35.948Z,69.17
2017-09-14T14:27:46.413Z,69.17
2017-09-14T14:28:56.870Z,69.35
2017-09-14T14:30:07.375Z,69.17
2017-09-14T14:31:17.842Z,68.87
2017-09-14T14:32:28.352Z,68.68
2017-09-14T14:33:38.888Z,68.01
2017-09-14T14:34:49.046Z,68.21
2017-09-14T14:35:59.769Z,67.72
2017-09-14T14:37:11.213Z,67.91
2017-09-14T14:38:21.486Z,67.98
2017-09-14T14:39:32.037Z,68.65
2017-09-14T14:40:42.496Z,68.27
2017-09-14T14:41:52.995Z,68.65
2017-09-14T14:43:03.450Z,68.65
2017-09-14T14:44:14.924Z,68.94
2017-09-14T14:45:25.420Z,68.59
2017-09-14T14:46:35.883Z,68.46
2017-09-14T14:47:46.561Z,68.07
2017-09-14T14:48:56.701Z,68.01
2017-09-14T14:50:07.158Z,67.79
2017-09-14T14:51:17.639Z,67.72
2017-09-14T14:52:28.093Z,67.44
2017-09-14T14:53:38.568Z,66.86
2017-09-14T14:54:49.027Z,66.96
2017-09-14T14:55:59.591Z,66.86
2017-09-14T14:57:10.068Z,66.48
2017-09-14T14:58:20.072Z,66.58
2017-09-14T14:59:30.210Z,66.77
2017-09-14T15:00:40.880Z,66.42
2017-09-14T15:01:51.315Z,65.94
2017-09-14T15:03:01.885Z,65.94
2017-09-14T15:04:12.464Z,66.42
2017-09-14T15:05:22.901Z,65.81
2017-09-14T15:06:34.023Z,66.13
2017-09-14T15:07:44.533Z,66.03
2017-09-14T15:08:54.704Z,63.92
2017-09-14T15:10:05.188Z,64.02
2017-09-14T15:11:15.364Z,63.35
2017-09-14T15:12:25.847Z,63.83